sensor_id;sensor_type;location;lat;lon;timestamp;P1;durP1;ratioP1;P2;durP2;ratioP2
46835;SDS011;32573;51.290;6.926;2022-07-26T00:01:17;2.88;;;1.10;;
46835;SDS011;32573;51.290;6.926;2022-07-26T00:03:47;1.92;;;0.90;;
46835;SDS011;32573;51.290;6.926;2022-07-26T00:06:17;2.88;;;1.00;;
46835;SDS011;32573;51.290;6.926;2022-07-26T00:08:45;2.55;;;0.90;;
46835;SDS011;32573;51.290;6.926;2022-07-26T00:11:15;2.55;;;0.90;;
46835;SDS011;32573;51.290;6.926;2022-07-26T00:13:44;2.92;;;1.10;;
46835;SDS011;32573;51.290;6.926;2022-07-26T00:16:13;2.75;;;1.10;;
46835;SDS011;32573;51.290;6.926;2022-07-26T00:18:42;3.00;;;1.23;;
46835;SDS011;32573;51.290;6.926;2022-07-26T00:21:10;3.13;;;1.10;;
46835;SDS011;32573;51.290;6.926;2022-07-26T00:23:39;4.00;;;1.20;;
46835;SDS011;32573;51.290;6.926;2022-07-26T00:26:07;4.15;;;1.00;;
46835;SDS011;32573;51.290;6.926;2022-07-26T00:28:37;3.85;;;1.30;;
46835;SDS011;32573;51.290;6.926;2022-07-26T00:31:07;4.25;;;1.38;;
46835;SDS011;32573;51.290;6.926;2022-07-26T00:33:37;3.10;;;1.33;;
46835;SDS011;32573;51.290;6.926;2022-07-26T00:36:06;4.68;;;1.30;;
46835;SDS011;32573;51.290;6.926;2022-07-26T00:38:35;2.60;;;1.25;;
46835;SDS011;32573;51.290;6.926;2022-07-26T00:41:04;4.05;;;1.30;;
46835;SDS011;32573;51.290;6.926;2022-07-26T00:43:33;3.60;;;1.40;;
46835;SDS011;32573;51.290;6.926;2022-07-26T00:46:03;4.50;;;1.40;;
46835;SDS011;32573;51.290;6.926;2022-07-26T00:48:31;4.25;;;1.45;;
46835;SDS011;32573;51.290;6.926;2022-07-26T00:51:00;3.67;;;1.30;;
46835;SDS011;32573;51.290;6.926;2022-07-26T00:53:28;2.88;;;1.20;;
46835;SDS011;32573;51.290;6.926;2022-07-26T00:55:56;4.80;;;1.30;;
46835;SDS011;32573;51.290;6.926;2022-07-26T00:58:25;3.55;;;1.30;;
46835;SDS011;32573;51.290;6.926;2022-07-26T01:00:53;3.08;;;1.15;;
46835;SDS011;32573;51.290;6.926;2022-07-26T01:03:23;4.07;;;1.42;;
46835;SDS011;32573;51.290;6.926;2022-07-26T01:06:05;4.03;;;1.30;;
46835;SDS011;32573;51.290;6.926;2022-07-26T01:08:34;2.95;;;1.02;;
46835;SDS011;32573;51.290;6.926;2022-07-26T01:11:03;7.18;;;1.60;;
46835;SDS011;32573;51.290;6.926;2022-07-26T01:13:31;4.57;;;1.80;;
46835;SDS011;32573;51.290;6.926;2022-07-26T01:16:01;3.20;;;1.30;;
46835;SDS011;32573;51.290;6.926;2022-07-26T01:18:31;4.40;;;1.15;;
46835;SDS011;32573;51.290;6.926;2022-07-26T01:21:00;3.33;;;1.20;;
46835;SDS011;32573;51.290;6.926;2022-07-26T01:23:41;3.78;;;1.30;;
46835;SDS011;32573;51.290;6.926;2022-07-26T01:26:10;2.63;;;1.10;;
46835;SDS011;32573;51.290;6.926;2022-07-26T01:28:39;2.95;;;0.98;;
46835;SDS011;32573;51.290;6.926;2022-07-26T01:31:08;3.70;;;1.10;;
46835;SDS011;32573;51.290;6.926;2022-07-26T01:33:36;3.13;;;1.08;;
46835;SDS011;32573;51.290;6.926;2022-07-26T01:36:05;2.75;;;1.00;;
46835;SDS011;32573;51.290;6.926;2022-07-26T01:38:34;3.97;;;0.98;;
46835;SDS011;32573;51.290;6.926;2022-07-26T01:41:04;3.92;;;1.20;;
46835;SDS011;32573;51.290;6.926;2022-07-26T01:43:32;3.42;;;1.17;;
46835;SDS011;32573;51.290;6.926;2022-07-26T01:46:01;3.97;;;1.48;;
46835;SDS011;32573;51.290;6.926;2022-07-26T01:48:30;2.63;;;1.15;;
46835;SDS011;32573;51.290;6.926;2022-07-26T01:50:59;3.83;;;1.00;;
46835;SDS011;32573;51.290;6.926;2022-07-26T01:53:28;3.67;;;1.10;;
46835;SDS011;32573;51.290;6.926;2022-07-26T01:55:56;2.85;;;1.20;;
46835;SDS011;32573;51.290;6.926;2022-07-26T01:58:26;4.45;;;1.25;;
46835;SDS011;32573;51.290;6.926;2022-07-26T02:00:54;3.33;;;1.10;;
46835;SDS011;32573;51.290;6.926;2022-07-26T02:03:23;3.15;;;1.10;;
46835;SDS011;32573;51.290;6.926;2022-07-26T02:05:51;3.58;;;1.10;;
46835;SDS011;32573;51.290;6.926;2022-07-26T02:08:19;3.90;;;1.20;;
46835;SDS011;32573;51.290;6.926;2022-07-26T02:10:49;2.90;;;1.40;;
46835;SDS011;32573;51.290;6.926;2022-07-26T02:13:32;3.17;;;1.20;;
46835;SDS011;32573;51.290;6.926;2022-07-26T02:16:01;3.63;;;1.02;;
46835;SDS011;32573;51.290;6.926;2022-07-26T02:18:32;3.75;;;1.20;;
46835;SDS011;32573;51.290;6.926;2022-07-26T02:21:01;3.28;;;1.17;;
46835;SDS011;32573;51.290;6.926;2022-07-26T02:23:29;4.15;;;1.17;;
46835;SDS011;32573;51.290;6.926;2022-07-26T02:25:58;2.90;;;1.17;;
46835;SDS011;32573;51.290;6.926;2022-07-26T02:28:27;4.25;;;1.30;;
46835;SDS011;32573;51.290;6.926;2022-07-26T02:30:57;5.47;;;1.40;;
46835;SDS011;32573;51.290;6.926;2022-07-26T02:33:25;4.90;;;1.10;;
46835;SDS011;32573;51.290;6.926;2022-07-26T02:35:54;4.20;;;1.20;;
46835;SDS011;32573;51.290;6.926;2022-07-26T02:38:22;4.63;;;1.40;;
46835;SDS011;32573;51.290;6.926;2022-07-26T02:40:51;3.55;;;1.20;;
46835;SDS011;32573;51.290;6.926;2022-07-26T02:43:19;3.40;;;1.15;;
46835;SDS011;32573;51.290;6.926;2022-07-26T02:45:48;4.30;;;1.50;;
46835;SDS011;32573;51.290;6.926;2022-07-26T02:48:29;3.85;;;1.38;;
46835;SDS011;32573;51.290;6.926;2022-07-26T02:50:58;5.22;;;1.40;;
46835;SDS011;32573;51.290;6.926;2022-07-26T02:53:27;5.00;;;1.50;;
46835;SDS011;32573;51.290;6.926;2022-07-26T02:55:55;6.82;;;1.35;;
46835;SDS011;32573;51.290;6.926;2022-07-26T02:58:23;4.25;;;1.10;;
46835;SDS011;32573;51.290;6.926;2022-07-26T03:00:52;4.18;;;1.30;;
46835;SDS011;32573;51.290;6.926;2022-07-26T03:03:21;3.75;;;1.55;;
46835;SDS011;32573;51.290;6.926;2022-07-26T03:05:51;2.72;;;1.17;;
46835;SDS011;32573;51.290;6.926;2022-07-26T03:08:19;3.45;;;1.35;;
46835;SDS011;32573;51.290;6.926;2022-07-26T03:10:48;5.18;;;1.20;;
46835;SDS011;32573;51.290;6.926;2022-07-26T03:13:17;4.32;;;1.30;;
46835;SDS011;32573;51.290;6.926;2022-07-26T03:15:45;5.40;;;1.40;;
46835;SDS011;32573;51.290;6.926;2022-07-26T03:18:14;5.82;;;1.48;;
46835;SDS011;32573;51.290;6.926;2022-07-26T03:20:42;4.20;;;1.58;;
46835;SDS011;32573;51.290;6.926;2022-07-26T03:23:12;4.22;;;1.40;;
46835;SDS011;32573;51.290;6.926;2022-07-26T03:25:40;5.72;;;1.40;;
46835;SDS011;32573;51.290;6.926;2022-07-26T03:28:09;5.68;;;1.30;;
46835;SDS011;32573;51.290;6.926;2022-07-26T03:30:45;5.43;;;1.42;;
46835;SDS011;32573;51.290;6.926;2022-07-26T03:33:13;4.10;;;1.45;;
46835;SDS011;32573;51.290;6.926;2022-07-26T03:35:42;4.63;;;1.30;;
46835;SDS011;32573;51.290;6.926;2022-07-26T03:38:12;5.35;;;1.50;;
46835;SDS011;32573;51.290;6.926;2022-07-26T03:40:40;3.47;;;1.50;;
46835;SDS011;32573;51.290;6.926;2022-07-26T03:43:08;4.70;;;1.52;;
46835;SDS011;32573;51.290;6.926;2022-07-26T03:45:37;7.25;;;1.38;;
46835;SDS011;32573;51.290;6.926;2022-07-26T03:48:05;3.67;;;1.52;;
46835;SDS011;32573;51.290;6.926;2022-07-26T03:50:34;4.72;;;1.45;;
46835;SDS011;32573;51.290;6.926;2022-07-26T03:53:02;4.10;;;1.20;;
46835;SDS011;32573;51.290;6.926;2022-07-26T03:55:32;3.78;;;1.48;;
46835;SDS011;32573;51.290;6.926;2022-07-26T03:58:18;6.28;;;1.70;;
46835;SDS011;32573;51.290;6.926;2022-07-26T04:00:47;5.45;;;1.45;;
46835;SDS011;32573;51.290;6.926;2022-07-26T04:03:15;5.13;;;1.50;;
46835;SDS011;32573;51.290;6.926;2022-07-26T04:05:44;7.00;;;1.50;;
46835;SDS011;32573;51.290;6.926;2022-07-26T04:08:14;5.47;;;1.40;;
46835;SDS011;32573;51.290;6.926;2022-07-26T04:10:45;4.50;;;1.58;;
46835;SDS011;32573;51.290;6.926;2022-07-26T04:13:13;5.25;;;1.50;;
46835;SDS011;32573;51.290;6.926;2022-07-26T04:15:42;5.68;;;1.30;;
46835;SDS011;32573;51.290;6.926;2022-07-26T04:18:10;4.97;;;1.40;;
46835;SDS011;32573;51.290;6.926;2022-07-26T04:20:40;3.97;;;1.38;;
46835;SDS011;32573;51.290;6.926;2022-07-26T04:23:09;4.47;;;1.52;;
46835;SDS011;32573;51.290;6.926;2022-07-26T04:25:38;5.45;;;1.75;;
46835;SDS011;32573;51.290;6.926;2022-07-26T04:28:09;4.05;;;1.48;;
46835;SDS011;32573;51.290;6.926;2022-07-26T04:30:38;5.40;;;1.52;;
46835;SDS011;32573;51.290;6.926;2022-07-26T04:33:07;5.70;;;1.80;;
46835;SDS011;32573;51.290;6.926;2022-07-26T04:35:36;4.97;;;1.55;;
46835;SDS011;32573;51.290;6.926;2022-07-26T04:38:04;10.98;;;1.73;;
46835;SDS011;32573;51.290;6.926;2022-07-26T04:40:33;4.53;;;1.60;;
46835;SDS011;32573;51.290;6.926;2022-07-26T04:43:07;5.35;;;1.45;;
46835;SDS011;32573;51.290;6.926;2022-07-26T04:45:42;6.47;;;1.92;;
46835;SDS011;32573;51.290;6.926;2022-07-26T04:48:11;5.28;;;1.38;;
46835;SDS011;32573;51.290;6.926;2022-07-26T04:50:40;5.45;;;1.50;;
46835;SDS011;32573;51.290;6.926;2022-07-26T04:53:08;4.03;;;1.40;;
46835;SDS011;32573;51.290;6.926;2022-07-26T04:55:37;4.32;;;1.48;;
46835;SDS011;32573;51.290;6.926;2022-07-26T04:58:06;3.47;;;1.17;;
46835;SDS011;32573;51.290;6.926;2022-07-26T05:00:36;5.32;;;1.60;;
46835;SDS011;32573;51.290;6.926;2022-07-26T05:03:25;4.05;;;1.38;;
46835;SDS011;32573;51.290;6.926;2022-07-26T05:05:53;3.63;;;1.30;;
46835;SDS011;32573;51.290;6.926;2022-07-26T05:08:22;4.20;;;1.50;;
46835;SDS011;32573;51.290;6.926;2022-07-26T05:10:50;5.80;;;1.58;;
46835;SDS011;32573;51.290;6.926;2022-07-26T05:13:23;3.25;;;1.40;;
46835;SDS011;32573;51.290;6.926;2022-07-26T05:15:56;6.35;;;1.60;;
46835;SDS011;32573;51.290;6.926;2022-07-26T05:18:26;5.97;;;1.67;;
46835;SDS011;32573;51.290;6.926;2022-07-26T05:20:57;4.68;;;1.55;;
46835;SDS011;32573;51.290;6.926;2022-07-26T05:23:27;4.60;;;1.70;;
46835;SDS011;32573;51.290;6.926;2022-07-26T05:25:55;5.90;;;1.80;;
46835;SDS011;32573;51.290;6.926;2022-07-26T05:28:25;5.10;;;1.52;;
46835;SDS011;32573;51.290;6.926;2022-07-26T05:30:53;4.88;;;1.45;;
46835;SDS011;32573;51.290;6.926;2022-07-26T05:33:22;4.90;;;1.52;;
46835;SDS011;32573;51.290;6.926;2022-07-26T05:35:50;3.90;;;1.40;;
46835;SDS011;32573;51.290;6.926;2022-07-26T05:38:19;5.55;;;1.45;;
46835;SDS011;32573;51.290;6.926;2022-07-26T05:40:47;4.00;;;1.40;;
46835;SDS011;32573;51.290;6.926;2022-07-26T05:43:16;5.97;;;1.70;;
46835;SDS011;32573;51.290;6.926;2022-07-26T05:45:46;4.18;;;1.60;;
46835;SDS011;32573;51.290;6.926;2022-07-26T05:48:15;5.28;;;1.58;;
46835;SDS011;32573;51.290;6.926;2022-07-26T05:50:44;5.78;;;1.92;;
46835;SDS011;32573;51.290;6.926;2022-07-26T05:53:15;6.13;;;1.75;;
46835;SDS011;32573;51.290;6.926;2022-07-26T05:55:44;4.90;;;1.55;;
46835;SDS011;32573;51.290;6.926;2022-07-26T05:58:12;6.38;;;1.85;;
46835;SDS011;32573;51.290;6.926;2022-07-26T06:00:41;6.18;;;1.85;;
46835;SDS011;32573;51.290;6.926;2022-07-26T06:03:15;4.25;;;1.60;;
46835;SDS011;32573;51.290;6.926;2022-07-26T06:05:51;4.05;;;1.60;;
46835;SDS011;32573;51.290;6.926;2022-07-26T06:08:20;7.60;;;1.65;;
46835;SDS011;32573;51.290;6.926;2022-07-26T06:10:49;6.53;;;2.00;;
46835;SDS011;32573;51.290;6.926;2022-07-26T06:13:19;5.65;;;1.70;;
46835;SDS011;32573;51.290;6.926;2022-07-26T06:15:47;6.28;;;1.90;;
46835;SDS011;32573;51.290;6.926;2022-07-26T06:18:17;6.13;;;1.95;;
46835;SDS011;32573;51.290;6.926;2022-07-26T06:20:46;5.47;;;1.70;;
46835;SDS011;32573;51.290;6.926;2022-07-26T06:23:15;4.57;;;1.70;;
46835;SDS011;32573;51.290;6.926;2022-07-26T06:25:59;7.88;;;2.10;;
46835;SDS011;32573;51.290;6.926;2022-07-26T06:28:28;7.72;;;2.03;;
46835;SDS011;32573;51.290;6.926;2022-07-26T06:30:56;5.05;;;1.80;;
46835;SDS011;32573;51.290;6.926;2022-07-26T06:33:26;7.65;;;2.10;;
46835;SDS011;32573;51.290;6.926;2022-07-26T06:35:54;6.70;;;2.15;;
46835;SDS011;32573;51.290;6.926;2022-07-26T06:38:22;5.90;;;1.88;;
46835;SDS011;32573;51.290;6.926;2022-07-26T06:40:51;5.00;;;1.70;;
46835;SDS011;32573;51.290;6.926;2022-07-26T06:43:19;6.93;;;1.92;;
46835;SDS011;32573;51.290;6.926;2022-07-26T06:45:48;7.03;;;2.00;;
46835;SDS011;32573;51.290;6.926;2022-07-26T06:48:16;8.73;;;2.60;;
46835;SDS011;32573;51.290;6.926;2022-07-26T06:50:46;6.53;;;2.10;;
46835;SDS011;32573;51.290;6.926;2022-07-26T06:53:14;7.25;;;2.08;;
46835;SDS011;32573;51.290;6.926;2022-07-26T06:55:43;5.72;;;2.10;;
46835;SDS011;32573;51.290;6.926;2022-07-26T06:58:11;5.75;;;2.22;;
46835;SDS011;32573;51.290;6.926;2022-07-26T07:00:40;7.70;;;2.40;;
46835;SDS011;32573;51.290;6.926;2022-07-26T07:03:08;8.05;;;2.60;;
46835;SDS011;32573;51.290;6.926;2022-07-26T07:05:37;5.47;;;2.00;;
46835;SDS011;32573;51.290;6.926;2022-07-26T07:08:07;9.13;;;2.55;;
46835;SDS011;32573;51.290;6.926;2022-07-26T07:10:37;7.80;;;2.92;;
46835;SDS011;32573;51.290;6.926;2022-07-26T07:13:06;6.00;;;2.20;;
46835;SDS011;32573;51.290;6.926;2022-07-26T07:15:35;6.82;;;2.00;;
46835;SDS011;32573;51.290;6.926;2022-07-26T07:18:03;4.75;;;2.08;;
46835;SDS011;32573;51.290;6.926;2022-07-26T07:20:32;7.72;;;2.40;;
46835;SDS011;32573;51.290;6.926;2022-07-26T07:23:00;10.27;;;2.60;;
46835;SDS011;32573;51.290;6.926;2022-07-26T07:25:30;8.07;;;2.38;;
46835;SDS011;32573;51.290;6.926;2022-07-26T07:27:59;7.95;;;2.40;;
46835;SDS011;32573;51.290;6.926;2022-07-26T07:30:27;8.05;;;2.40;;
46835;SDS011;32573;51.290;6.926;2022-07-26T07:32:55;10.50;;;2.80;;
46835;SDS011;32573;51.290;6.926;2022-07-26T07:35:24;7.03;;;2.35;;
46835;SDS011;32573;51.290;6.926;2022-07-26T07:40:27;8.18;;;2.80;;
46835;SDS011;32573;51.290;6.926;2022-07-26T07:42:57;6.57;;;2.20;;
46835;SDS011;32573;51.290;6.926;2022-07-26T07:45:26;8.70;;;2.53;;
46835;SDS011;32573;51.290;6.926;2022-07-26T07:47:54;6.22;;;2.25;;
46835;SDS011;32573;51.290;6.926;2022-07-26T07:50:23;6.53;;;2.30;;
46835;SDS011;32573;51.290;6.926;2022-07-26T07:52:53;7.18;;;2.75;;
46835;SDS011;32573;51.290;6.926;2022-07-26T07:55:23;7.72;;;2.72;;
46835;SDS011;32573;51.290;6.926;2022-07-26T07:58:14;7.75;;;2.50;;
46835;SDS011;32573;51.290;6.926;2022-07-26T08:00:45;7.60;;;2.97;;
46835;SDS011;32573;51.290;6.926;2022-07-26T08:03:14;7.50;;;2.88;;
46835;SDS011;32573;51.290;6.926;2022-07-26T08:05:45;5.95;;;2.40;;
46835;SDS011;32573;51.290;6.926;2022-07-26T08:08:16;10.75;;;3.55;;
46835;SDS011;32573;51.290;6.926;2022-07-26T08:10:49;6.18;;;2.80;;
46835;SDS011;32573;51.290;6.926;2022-07-26T08:13:21;7.38;;;2.40;;
46835;SDS011;32573;51.290;6.926;2022-07-26T08:15:49;7.20;;;2.50;;
46835;SDS011;32573;51.290;6.926;2022-07-26T08:18:18;7.43;;;2.50;;
46835;SDS011;32573;51.290;6.926;2022-07-26T08:20:49;6.38;;;2.20;;
46835;SDS011;32573;51.290;6.926;2022-07-26T08:23:19;6.60;;;3.10;;
46835;SDS011;32573;51.290;6.926;2022-07-26T08:25:48;8.80;;;3.17;;
46835;SDS011;32573;51.290;6.926;2022-07-26T08:28:32;9.02;;;2.80;;
46835;SDS011;32573;51.290;6.926;2022-07-26T08:31:14;8.60;;;2.75;;
46835;SDS011;32573;51.290;6.926;2022-07-26T08:33:44;8.52;;;2.97;;
46835;SDS011;32573;51.290;6.926;2022-07-26T08:36:13;8.45;;;3.40;;
46835;SDS011;32573;51.290;6.926;2022-07-26T08:38:42;8.55;;;3.28;;
46835;SDS011;32573;51.290;6.926;2022-07-26T08:41:14;6.25;;;2.58;;
46835;SDS011;32573;51.290;6.926;2022-07-26T08:43:44;7.03;;;2.70;;
46835;SDS011;32573;51.290;6.926;2022-07-26T08:46:20;8.65;;;3.10;;
46835;SDS011;32573;51.290;6.926;2022-07-26T08:48:53;7.28;;;2.70;;
46835;SDS011;32573;51.290;6.926;2022-07-26T08:51:23;7.28;;;2.63;;
46835;SDS011;32573;51.290;6.926;2022-07-26T08:53:53;5.28;;;2.22;;
46835;SDS011;32573;51.290;6.926;2022-07-26T08:56:31;9.25;;;3.20;;
46835;SDS011;32573;51.290;6.926;2022-07-26T08:59:10;5.90;;;2.45;;
46835;SDS011;32573;51.290;6.926;2022-07-26T09:01:53;8.73;;;3.22;;
46835;SDS011;32573;51.290;6.926;2022-07-26T09:04:23;7.72;;;2.42;;
46835;SDS011;32573;51.290;6.926;2022-07-26T09:07:07;8.15;;;2.30;;
46835;SDS011;32573;51.290;6.926;2022-07-26T09:09:37;6.15;;;2.55;;
46835;SDS011;32573;51.290;6.926;2022-07-26T09:12:19;5.28;;;2.63;;
46835;SDS011;32573;51.290;6.926;2022-07-26T09:14:51;6.50;;;2.70;;
46835;SDS011;32573;51.290;6.926;2022-07-26T09:17:22;7.82;;;2.90;;
46835;SDS011;32573;51.290;6.926;2022-07-26T09:20:03;6.03;;;2.38;;
46835;SDS011;32573;51.290;6.926;2022-07-26T09:22:35;8.20;;;2.95;;
46835;SDS011;32573;51.290;6.926;2022-07-26T09:25:10;6.18;;;2.88;;
46835;SDS011;32573;51.290;6.926;2022-07-26T09:27:47;6.95;;;3.03;;
46835;SDS011;32573;51.290;6.926;2022-07-26T09:30:18;6.38;;;2.95;;
46835;SDS011;32573;51.290;6.926;2022-07-26T09:32:57;6.00;;;2.65;;
46835;SDS011;32573;51.290;6.926;2022-07-26T09:35:28;5.90;;;2.88;;
46835;SDS011;32573;51.290;6.926;2022-07-26T09:38:17;6.43;;;3.10;;
46835;SDS011;32573;51.290;6.926;2022-07-26T09:40:46;5.75;;;3.00;;
46835;SDS011;32573;51.290;6.926;2022-07-26T09:43:17;6.93;;;3.28;;
46835;SDS011;32573;51.290;6.926;2022-07-26T09:46:04;6.05;;;3.03;;
46835;SDS011;32573;51.290;6.926;2022-07-26T09:48:33;6.40;;;3.17;;
46835;SDS011;32573;51.290;6.926;2022-07-26T09:51:34;7.13;;;3.50;;
46835;SDS011;32573;51.290;6.926;2022-07-26T09:54:04;6.15;;;3.30;;
46835;SDS011;32573;51.290;6.926;2022-07-26T09:56:42;6.18;;;3.35;;
46835;SDS011;32573;51.290;6.926;2022-07-26T09:59:12;4.97;;;3.00;;
46835;SDS011;32573;51.290;6.926;2022-07-26T10:01:44;6.80;;;3.58;;
46835;SDS011;32573;51.290;6.926;2022-07-26T10:04:13;5.38;;;3.42;;
46835;SDS011;32573;51.290;6.926;2022-07-26T10:06:42;5.95;;;3.40;;
46835;SDS011;32573;51.290;6.926;2022-07-26T10:09:11;5.25;;;3.17;;
46835;SDS011;32573;51.290;6.926;2022-07-26T10:11:41;6.03;;;3.75;;
46835;SDS011;32573;51.290;6.926;2022-07-26T10:26:01;5.40;;;3.28;;
46835;SDS011;32573;51.290;6.926;2022-07-26T10:28:30;6.47;;;2.75;;
46835;SDS011;32573;51.290;6.926;2022-07-26T10:33:50;7.13;;;3.55;;
46835;SDS011;32573;51.290;6.926;2022-07-26T10:36:22;5.88;;;2.85;;
46835;SDS011;32573;51.290;6.926;2022-07-26T10:39:00;5.47;;;2.78;;
46835;SDS011;32573;51.290;6.926;2022-07-26T10:41:37;5.75;;;2.45;;
46835;SDS011;32573;51.290;6.926;2022-07-26T10:44:15;4.90;;;2.50;;
46835;SDS011;32573;51.290;6.926;2022-07-26T10:46:56;5.63;;;2.10;;
46835;SDS011;32573;51.290;6.926;2022-07-26T10:49:29;5.03;;;2.30;;
46835;SDS011;32573;51.290;6.926;2022-07-26T10:52:05;6.20;;;2.53;;
46835;SDS011;32573;51.290;6.926;2022-07-26T10:57:40;4.65;;;2.13;;
46835;SDS011;32573;51.290;6.926;2022-07-26T11:00:12;4.43;;;2.15;;
46835;SDS011;32573;51.290;6.926;2022-07-26T11:02:49;5.03;;;2.50;;
46835;SDS011;32573;51.290;6.926;2022-07-26T11:05:21;4.45;;;2.42;;
46835;SDS011;32573;51.290;6.926;2022-07-26T11:07:57;5.70;;;2.22;;
46835;SDS011;32573;51.290;6.926;2022-07-26T11:10:31;5.32;;;2.40;;
46835;SDS011;32573;51.290;6.926;2022-07-26T11:13:06;3.97;;;2.10;;
46835;SDS011;32573;51.290;6.926;2022-07-26T11:18:15;3.90;;;1.80;;
46835;SDS011;32573;51.290;6.926;2022-07-26T11:20:51;3.63;;;1.70;;
46835;SDS011;32573;51.290;6.926;2022-07-26T11:23:32;3.42;;;1.80;;
46835;SDS011;32573;51.290;6.926;2022-07-26T11:26:11;3.70;;;1.70;;
46835;SDS011;32573;51.290;6.926;2022-07-26T11:28:42;4.95;;;1.92;;
46835;SDS011;32573;51.290;6.926;2022-07-26T11:31:26;3.80;;;1.67;;
46835;SDS011;32573;51.290;6.926;2022-07-26T11:34:21;3.60;;;1.40;;
46835;SDS011;32573;51.290;6.926;2022-07-26T11:36:51;3.13;;;1.40;;
46835;SDS011;32573;51.290;6.926;2022-07-26T11:39:23;3.20;;;1.23;;
46835;SDS011;32573;51.290;6.926;2022-07-26T11:41:55;2.65;;;1.20;;
46835;SDS011;32573;51.290;6.926;2022-07-26T11:44:24;3.72;;;1.20;;
46835;SDS011;32573;51.290;6.926;2022-07-26T11:46:53;2.70;;;1.10;;
46835;SDS011;32573;51.290;6.926;2022-07-26T11:49:24;2.50;;;1.10;;
46835;SDS011;32573;51.290;6.926;2022-07-26T11:52:14;3.28;;;1.10;;
46835;SDS011;32573;51.290;6.926;2022-07-26T11:54:52;2.67;;;0.98;;
46835;SDS011;32573;51.290;6.926;2022-07-26T11:57:26;2.05;;;0.93;;
46835;SDS011;32573;51.290;6.926;2022-07-26T12:02:25;2.97;;;1.05;;
46835;SDS011;32573;51.290;6.926;2022-07-26T12:07:52;1.30;;;0.80;;
46835;SDS011;32573;51.290;6.926;2022-07-26T12:10:26;1.90;;;0.90;;
46835;SDS011;32573;51.290;6.926;2022-07-26T12:13:05;2.15;;;0.90;;
46835;SDS011;32573;51.290;6.926;2022-07-26T12:18:21;2.45;;;1.00;;
46835;SDS011;32573;51.290;6.926;2022-07-26T12:21:00;1.90;;;1.00;;
46835;SDS011;32573;51.290;6.926;2022-07-26T12:23:40;2.90;;;1.15;;
46835;SDS011;32573;51.290;6.926;2022-07-26T12:26:20;2.72;;;1.10;;
46835;SDS011;32573;51.290;6.926;2022-07-26T12:28:50;2.67;;;1.20;;
46835;SDS011;32573;51.290;6.926;2022-07-26T12:31:22;2.63;;;1.10;;
46835;SDS011;32573;51.290;6.926;2022-07-26T12:33:51;2.25;;;1.10;;
46835;SDS011;32573;51.290;6.926;2022-07-26T12:36:20;2.80;;;1.08;;
46835;SDS011;32573;51.290;6.926;2022-07-26T12:38:55;2.58;;;1.00;;
46835;SDS011;32573;51.290;6.926;2022-07-26T12:41:32;2.35;;;1.00;;
46835;SDS011;32573;51.290;6.926;2022-07-26T12:44:02;2.25;;;0.90;;
46835;SDS011;32573;51.290;6.926;2022-07-26T12:46:32;2.03;;;1.00;;
46835;SDS011;32573;51.290;6.926;2022-07-26T12:49:01;2.08;;;0.90;;
46835;SDS011;32573;51.290;6.926;2022-07-26T12:51:31;3.05;;;1.08;;
46835;SDS011;32573;51.290;6.926;2022-07-26T12:53:59;1.95;;;0.93;;
46835;SDS011;32573;51.290;6.926;2022-07-26T12:56:29;2.40;;;1.10;;
46835;SDS011;32573;51.290;6.926;2022-07-26T12:58:58;2.15;;;1.10;;
46835;SDS011;32573;51.290;6.926;2022-07-26T13:01:28;3.05;;;1.13;;
46835;SDS011;32573;51.290;6.926;2022-07-26T13:03:57;2.35;;;1.08;;
46835;SDS011;32573;51.290;6.926;2022-07-26T13:06:26;2.92;;;1.40;;
46835;SDS011;32573;51.290;6.926;2022-07-26T13:08:55;2.58;;;1.20;;
46835;SDS011;32573;51.290;6.926;2022-07-26T13:11:23;2.60;;;1.20;;
46835;SDS011;32573;51.290;6.926;2022-07-26T13:13:52;2.40;;;1.20;;
46835;SDS011;32573;51.290;6.926;2022-07-26T13:16:22;2.15;;;1.02;;
46835;SDS011;32573;51.290;6.926;2022-07-26T13:18:51;2.55;;;1.20;;
46835;SDS011;32573;51.290;6.926;2022-07-26T13:21:19;2.58;;;1.10;;
46835;SDS011;32573;51.290;6.926;2022-07-26T13:23:48;2.42;;;1.20;;
46835;SDS011;32573;51.290;6.926;2022-07-26T13:26:16;2.38;;;1.10;;
46835;SDS011;32573;51.290;6.926;2022-07-26T13:28:46;2.28;;;1.00;;
46835;SDS011;32573;51.290;6.926;2022-07-26T13:31:15;2.10;;;1.00;;
46835;SDS011;32573;51.290;6.926;2022-07-26T13:33:46;2.40;;;0.90;;
46835;SDS011;32573;51.290;6.926;2022-07-26T13:36:14;1.75;;;0.93;;
46835;SDS011;32573;51.290;6.926;2022-07-26T13:38:43;2.70;;;1.10;;
46835;SDS011;32573;51.290;6.926;2022-07-26T13:41:11;2.40;;;1.00;;
46835;SDS011;32573;51.290;6.926;2022-07-26T13:43:40;2.40;;;1.00;;
46835;SDS011;32573;51.290;6.926;2022-07-26T13:46:08;2.00;;;0.90;;
46835;SDS011;32573;51.290;6.926;2022-07-26T13:48:37;2.45;;;1.20;;
46835;SDS011;32573;51.290;6.926;2022-07-26T13:51:27;3.00;;;1.00;;
46835;SDS011;32573;51.290;6.926;2022-07-26T13:54:11;3.05;;;1.05;;
46835;SDS011;32573;51.290;6.926;2022-07-26T13:56:40;2.53;;;0.90;;
46835;SDS011;32573;51.290;6.926;2022-07-26T13:59:09;1.95;;;1.05;;
46835;SDS011;32573;51.290;6.926;2022-07-26T14:01:38;2.40;;;1.08;;
46835;SDS011;32573;51.290;6.926;2022-07-26T14:04:10;2.30;;;0.90;;
46835;SDS011;32573;51.290;6.926;2022-07-26T14:06:42;2.53;;;0.90;;
46835;SDS011;32573;51.290;6.926;2022-07-26T14:09:11;2.55;;;1.10;;
46835;SDS011;32573;51.290;6.926;2022-07-26T14:11:40;2.22;;;1.08;;
46835;SDS011;32573;51.290;6.926;2022-07-26T14:14:09;2.30;;;1.00;;
46835;SDS011;32573;51.290;6.926;2022-07-26T14:16:38;1.80;;;0.90;;
46835;SDS011;32573;51.290;6.926;2022-07-26T14:19:07;1.80;;;0.90;;
46835;SDS011;32573;51.290;6.926;2022-07-26T14:21:37;2.30;;;1.00;;
46835;SDS011;32573;51.290;6.926;2022-07-26T14:24:26;2.30;;;1.02;;
46835;SDS011;32573;51.290;6.926;2022-07-26T14:26:54;1.95;;;0.98;;
46835;SDS011;32573;51.290;6.926;2022-07-26T14:29:26;2.75;;;0.90;;
46835;SDS011;32573;51.290;6.926;2022-07-26T14:31:54;2.13;;;1.00;;
46835;SDS011;32573;51.290;6.926;2022-07-26T14:34:23;2.25;;;1.05;;
46835;SDS011;32573;51.290;6.926;2022-07-26T14:36:52;2.90;;;1.13;;
46835;SDS011;32573;51.290;6.926;2022-07-26T14:39:20;3.35;;;1.30;;
46835;SDS011;32573;51.290;6.926;2022-07-26T14:41:50;5.43;;;1.60;;
46835;SDS011;32573;51.290;6.926;2022-07-26T14:44:18;3.70;;;1.50;;
46835;SDS011;32573;51.290;6.926;2022-07-26T14:46:47;3.75;;;1.40;;
46835;SDS011;32573;51.290;6.926;2022-07-26T14:49:16;3.53;;;1.33;;
46835;SDS011;32573;51.290;6.926;2022-07-26T14:51:44;3.33;;;1.30;;
46835;SDS011;32573;51.290;6.926;2022-07-26T14:54:14;5.63;;;1.50;;
46835;SDS011;32573;51.290;6.926;2022-07-26T14:56:43;3.65;;;1.55;;
46835;SDS011;32573;51.290;6.926;2022-07-26T14:59:13;3.50;;;1.42;;
46835;SDS011;32573;51.290;6.926;2022-07-26T15:01:42;3.65;;;1.52;;
46835;SDS011;32573;51.290;6.926;2022-07-26T15:04:11;3.80;;;1.40;;
46835;SDS011;32573;51.290;6.926;2022-07-26T15:06:40;2.90;;;1.40;;
46835;SDS011;32573;51.290;6.926;2022-07-26T15:09:08;2.83;;;1.30;;
46835;SDS011;32573;51.290;6.926;2022-07-26T15:11:37;3.42;;;1.50;;
46835;SDS011;32573;51.290;6.926;2022-07-26T15:14:07;3.13;;;1.30;;
46835;SDS011;32573;51.290;6.926;2022-07-26T15:16:37;3.28;;;1.30;;
46835;SDS011;32573;51.290;6.926;2022-07-26T15:19:06;2.60;;;1.20;;
46835;SDS011;32573;51.290;6.926;2022-07-26T15:21:34;2.38;;;1.20;;
46835;SDS011;32573;51.290;6.926;2022-07-26T15:24:02;3.85;;;1.10;;
46835;SDS011;32573;51.290;6.926;2022-07-26T15:26:31;1.63;;;0.95;;
46835;SDS011;32573;51.290;6.926;2022-07-26T15:28:59;2.40;;;1.00;;
46835;SDS011;32573;51.290;6.926;2022-07-26T15:31:28;3.72;;;1.35;;
46835;SDS011;32573;51.290;6.926;2022-07-26T15:34:06;2.67;;;1.00;;
46835;SDS011;32573;51.290;6.926;2022-07-26T15:36:35;2.53;;;1.10;;
46835;SDS011;32573;51.290;6.926;2022-07-26T15:39:04;2.63;;;1.10;;
46835;SDS011;32573;51.290;6.926;2022-07-26T15:41:43;4.35;;;1.20;;